Minot, ND (58702)

12:50 AM CDT on March 27, 2015 (GMT -0500)
Why Not Minot | | Change Station
CLOSE
Current Station
Personal Weather Station
Location: Minot, ND
Elevation: 1759 ft
Nearby Weather Stations
Active Advisory: Flood Warning

Elev 1759 ft 48.22 °N, 101.30 °W | Updated 10 minutes ago

Clear
Clear
26.6 °F
Feels Like 23 °F
N
3.2
Wind Variable Wind from SSE

Today
High -- | Low -- °F
--% Chance of Precip.
Yesterday
High -- | Low -- °F
Precip. -- in
7:34 AM 8:08 PM
Waxing Crescent, 49% visible
Pressure 30.27 in
Visibility 10.0 miles
Clouds Clear
Windchill 23 °F
Dew Point 20 °F
Humidity 77%
Rainfall 0.00 in
Snow Depth Not available.
UV 0 out of 12
Pollen .50 out of 12
Air Quality Not available.
Flu Activity Not available.
METAR KMOT 270454Z AUTO 13008KT 10SM CLR M03/M08 A3020 RMK AO2 SLP251 T10331078

More Conditions Fewer Conditions

Pressure 30.27 in
Visibility 10.0 miles
Clouds Clear
Windchill 23 °F
Dew Point 20 °F
Humidity 77%
Rainfall 0.00 in
Snow Depth Not available.
UV 0 out of 12
Pollen .50 out of 12
Air Quality Not available.
Flu Activity Not available.
METAR KMOT 270454Z AUTO 13008KT 10SM CLR M03/M08 A3020 RMK AO2 SLP251 T10331078

More Conditions Fewer Conditions

10-Day Weather Forecast

Almanac

Astronomy

Mar. 27, 2015 Rise Set
Actual Time
Civil Twilight
Nautical Twilight
Astronomical Twilight
Moon
Length of Visible Light
Length of Day
Tomorrow will be .
, % of the Moon is Illuminated

Today's Extremes

State Highs State Lows

Community

WunderPhotos

Upload Photos

1,808,698 photos uploaded!

WunderBlogs® & News

Nearby

Air Quality

  Air Quality AQ Index Pollutant
Not available.

Snow Depth

Station Depth Elevation

Earthquake Activity

City Distance Mag. Time & Date
Minimum magnitude displayed is 2.5.

Coastal Water Temperatures

Place Temperature

Stations

Nearby Weather Stations

Station Location Temp. Windchill Dew Point Humidity Wind Precip. Elev Updated Type
                   
Flood Warning
Statement as of 11:28 AM CDT on March 26, 2015

The Flood Warning continues for
the Souris river near Foxholm.
* Until further notice.
* At 10:15 am Thursday the stage was 10.1 feet.
* Flood stage is 10.0 feet.
* Minor flooding is occurring and minor flooding is forecast.
* Forecast... the river will continue rising to near 12.0 feet by
Tuesday March 31st. Additional rises may be possible thereafter.
* Impact... at 12.0 feet... rural flooding begins.


             Fld observed forecasts (7am)
location stg stg day/time Fri Sat sun Mon Tue

Souris river basin
Foxholm 10 10.1 Thu 10 am 10.1 10.7 10.7 10.9 11.8

Lat... Lon 4845 10159 4845 10155 4843 10151 4828 10140
      4827 10142 4837 10152